Saturday, December 15, 2018, 11:23 PM EST
Back to Local

KMVY, Vineyard Haven Marthas Vin

Location: Vineyard Haven, MA, United States Lat: 41.4
Local Time: 11:23 PM EST ( 4:23 GMT) Lon: -70.617
Time Zone: US/Eastern Elev: 68 ft

Show me the last for .
Show Decoded

2018-12-15 22:53 METAR KMVY 160353Z AUTO 04011KT 10SM CLR 06/02 A3019 RMK AO2 SLP223 T00560022 =
2018-12-15 21:53 METAR KMVY 160253Z AUTO 03012KT 10SM CLR 06/03 A3020 RMK AO2 SLP228 T00560028
                 51017 =
2018-12-15 20:53 METAR KMVY 160153Z AUTO 04013KT 10SM CLR 06/04 A3018 RMK AO2 SLP220 T00610039 =
2018-12-15 19:53 METAR KMVY 160053Z AUTO 04011KT 10SM CLR 06/05 A3018 RMK AO2 SLP218 T00610050 =
2018-12-15 18:53 METAR KMVY 152353Z AUTO 04014KT 10SM CLR 07/06 A3015 RMK AO2 SLP210 T00670056
                 10106 20067 53010 =
2018-12-15 17:53 METAR KMVY 152253Z AUTO 04011KT 10SM CLR 08/06 A3012 RMK AO2 SLP200 T00780061 =
2018-12-15 16:53 METAR KMVY 152153Z 04013KT 10SM OVC041 09/08 A3013 RMK AO2 SLP204 T00940078 =
2018-12-15 15:53 METAR KMVY 152053Z 03007KT 10SM FEW003 OVC035 10/10 A3012 RMK AO2 SLP200
                 T01000100 53004 =
2018-12-15 14:53 METAR KMVY 151953Z 36006KT 10SM OVC035 11/11 A3012 RMK AO2 SLP198 T01060106 =
2018-12-15 14:49 METAR KMVY 151949Z 01004KT 10SM OVC035 11/11 A3011 RMK AO2 =
2018-12-15 13:53 METAR KMVY 151853Z 00000KT 10SM OVC024 11/11 A3011 RMK AO2 SLP196 T01060106 =
2018-12-15 12:53 METAR KMVY 151753Z 00000KT 5SM BR BKN021 OVC028 10/10 A3012 RMK AO2 RAE13 SLP201
                 P0000 60000 T01000100 10106 20094 56028 =
2018-12-15 12:34 METAR KMVY 151734Z 00000KT 4SM BR BKN019 OVC027 10/10 A3013 RMK AO2 RAE13 P0000
                 T01000100 =
2018-12-15 12:23 METAR KMVY 151723Z 32003KT 2 1/2SM BR OVC019 10/10 A3013 RMK AO2 RAE13 P0000
                 T01000100 =
2018-12-15 12:05 METAR KMVY 151705Z 33004KT 3SM -RA BR FEW005 OVC016 10/09 A3014 RMK AO2 P0000
                 T01000094 =
2018-12-15 11:53 METAR KMVY 151653Z 32003KT 4SM -RA BR BKN018 OVC024 10/09 A3014 RMK AO2 RAB51
                 SLP208 P0000 T01000094 =
2018-12-15 11:38 METAR KMVY 151638Z 32003KT 10SM BKN021 BKN025 OVC031 09/09 A3015 RMK AO2
                 T00940094 =
2018-12-15 10:53 METAR KMVY 151553Z 34008KT 10SM FEW024 OVC031 09/09 A3018 RMK AO2 SLP221
                 T00940089 =
2018-12-15 09:53 METAR KMVY 151453Z 33004KT 10SM OVC033 10/10 A3021 RMK AO2 SLP229 T01000100
                 51008 =
2018-12-15 09:15 METAR KMVY 151415Z 00000KT 10SM FEW021 OVC032 11/11 A3021 RMK AO2 T01060106 =
2018-12-15 08:53 METAR KMVY 151353Z 25003KT 9SM SCT005 BKN020 OVC032 10/10 A3021 RMK AO2 SLP228
                 T01000100 =
2018-12-15 08:38 METAR KMVY 151338Z 00000KT 5SM BR SCT004 BKN020 OVC030 10/10 A3020 RMK AO2
                 T01000100 =
2018-12-15 08:30 METAR KMVY 151330Z 00000KT 3SM R24/5500VP6000FT BR SCT002 SCT020 OVC030 10/10
                 A3021 RMK AO2 T01000100 =
2018-12-15 08:27 METAR KMVY 151327Z 32003KT 2SM R24/4500VP6000FT BR SCT002 BKN020 OVC029 10/10
                 A3021 RMK AO2 T01000100 =
2018-12-15 08:22 METAR KMVY 151322Z 00000KT 3/4SM R24/2800VP6000FT BR SCT002 BKN021 OVC029 10/10
                 A3020 RMK AO2 T01000100 =
2018-12-15 08:04 METAR KMVY 151304Z 25003KT 1/4SM R24/2000V2400FT FG VV002 09/09 A3020 RMK AO2
                 T00940094 =
2018-12-15 07:53 METAR KMVY 151253Z 26004KT 1/4SM R24/1600V2000FT FG VV002 09/09 A3019 RMK AO2
                 SLP223 T00940094 =
2018-12-15 07:51 METAR KMVY 151251Z 22004KT 1/4SM R24/1600V2000FT FG VV002 09/09 A3018 RMK AO2 =
2018-12-15 07:44 METAR KMVY 151244Z 22004KT 1/4SM R24/2000V2400FT FG VV002 09/09 A3018 RMK AO2
                 T00940094 =
2018-12-15 07:33 METAR KMVY 151233Z 22004KT 1/2SM R24/2800V5000FT FG OVC002 09/09 A3019 RMK AO2
                 T00940094 =
2018-12-15 07:22 METAR KMVY 151222Z 23004KT 1 1/2SM R24/5500VP6000FT BR OVC002 09/09 A3019 RMK
                 AO2 T00940094 =
2018-12-15 07:00 METAR KMVY 151200Z 23006KT 2SM BR OVC002 09/09 A3019 RMK AO2 T00940094 =
2018-12-15 06:53 METAR KMVY 151153Z 21008KT 3SM BR OVC002 09/09 A3019 RMK AO2 SLP222 60002 70004
                 T00940094 10094 20083 56006 =
2018-12-15 06:51 METAR KMVY 151151Z AUTO 21007KT 3SM BR OVC002 09/09 A3019 RMK AO2 =
2018-12-15 06:40 METAR KMVY 151140Z AUTO 23005KT 1 1/4SM BR OVC002 09/09 A3019 RMK AO2 T00890089
                 =
2018-12-15 05:53 METAR KMVY 151053Z AUTO 26004KT 3/4SM R24/3000V4000FT BR VV002 09/09 A3019 RMK
                 AO2 SLP224 T00890089 =
2018-12-15 05:16 METAR KMVY 151016Z AUTO 23005KT 1/2SM R24/1800V2400FT FG VV002 08/08 A3019 RMK
                 AO2 T00830083 =
2018-12-15 05:12 METAR KMVY 151012Z AUTO 22005KT 1/4SM R24/1800V2200FT FG VV002 08/08 A3019 RMK
                 AO2 T00830083 =
2018-12-15 05:00 METAR KMVY 151000Z AUTO 22005KT 3/4SM R24/2800VP6000FT BR BKN002 09/09 A3019 RMK
                 AO2 T00890089 =
2018-12-15 04:53 METAR KMVY 150953Z AUTO 23005KT 2 1/2SM BR BKN002 BKN031 OVC100 08/08 A3019 RMK
                 AO2 RAB01E33 SLP224 P0001 T00830083 =
2018-12-15 04:21 METAR KMVY 150921Z AUTO 23007KT 10SM -RA SCT002 BKN036 OVC095 09/09 A3019 RMK
                 AO2 RAB01 P0001 T00890089 =
2018-12-15 03:53 METAR KMVY 150853Z AUTO 21007KT 6SM BR BKN002 BKN015 OVC070 08/08 A3020 RMK AO2
                 RAE52 SLP228 P0000 60001 T00830083 58011 =
2018-12-15 03:44 METAR KMVY 150844Z AUTO 21008KT 3SM R24/4000VP6000FT -RA BR BKN002 BKN020 OVC070
                 08/08 A3021 RMK AO2 P0000 T00830083 =
2018-12-15 03:08 METAR KMVY 150808Z AUTO 22007KT 1SM R24/4000V4500FT -RA BR OVC002 08/08 A3022
                 RMK AO2 P0000 T00830083 =
2018-12-15 02:53 METAR KMVY 150753Z AUTO 22008KT 3/4SM R24/3500V5500FT -RA BR VV003 08/08 A3023
                 RMK AO2 RAB03 SLP235 P0001 T00830083 =
2018-12-15 02:31 METAR KMVY 150731Z AUTO 22007KT 1SM R24/5000V6000FT -RA BR VV002 08/08 A3023 RMK
                 AO2 RAB03 P0001 T00830083 =
2018-12-15 02:09 METAR KMVY 150709Z AUTO 23006KT 1/2SM R24/2000V2800FT -RA FG VV002 08/08 A3022
                 RMK AO2 RAB03 P0000 T00830083 =
2018-12-15 02:00 METAR KMVY 150700Z AUTO 21008KT 1/4SM R24/2000V2200FT FG VV002 08/08 A3022 RMK
                 AO2 T00830083 =
2018-12-15 01:53 METAR KMVY 150653Z AUTO 21009KT 1/2SM R24/2000V2400FT FG VV002 08/08 A3023 RMK
                 AO2 RAE53 SLP235 P0000 T00830083 =
2018-12-15 01:25 METAR KMVY 150625Z AUTO 21009KT 1/2SM R24/2400V3500FT -RA FG VV003 08/08 A3024
                 RMK AO2 P0000 T00830083 =
2018-12-15 01:13 METAR KMVY 150613Z AUTO 21008KT 1 3/4SM R24/3500VP6000FT -RA BR BKN002 OVC009
                 08/08 A3024 RMK AO2 P0000 T00830083 =
2018-12-15 01:06 METAR KMVY 150606Z AUTO 21009KT 3SM -RA BR BKN002 BKN015 OVC085 08/08 A3024 RMK
                 AO2 P0000 T00830083 =
2018-12-15 00:56 METAR KMVY 150556Z AUTO 22008KT 2 1/2SM -RA BR SCT002 BKN015 OVC085 08/08 A3024
                 RMK AO2 P0000 T00830083 =
2018-12-15 00:53 METAR KMVY 150553Z AUTO 21009KT 3SM -RA BR SCT002 BKN013 OVC085 08/08 A3024 RMK
                 AO2 SLP239 P0001 60002 T00830083 10083 20028 57019 =
2018-12-15 00:40 METAR KMVY 150540Z AUTO 22008KT 3SM R24/5500VP6000FT -RA BR FEW002 BKN015 OVC080
                 08/08 A3024 RMK AO2 P0001 T00830083 =
2018-12-15 00:36 METAR KMVY 150536Z AUTO 22009KT 1 1/2SM R24/4000VP6000FT -RA BR SCT002 BKN015
                 OVC075 08/08 A3024 RMK AO2 P0001 T00830083 =
2018-12-15 00:16 METAR KMVY 150516Z AUTO 21010KT 1 3/4SM R24/6000VP6000FT -RA BR OVC002 08/08
                 A3024 RMK AO2 P0000 T00830083 =
2018-12-14 23:53 METAR KMVY 150453Z AUTO 21013KT 5SM -RA BR OVC003 08/08 A3026 RMK AO2 RAB16
                 SLP245 P0001 T00830083 400831072 =

Support USWX by starting your Amazon purchase here.